sensor_id;sensor_type;location;lat;lon;timestamp;P1;durP1;ratioP1;P2;durP2;ratioP2
7997;SDS011;4044;49.814;7.828;2023-02-01T00:01:38;4.57;;;4.13;;
7997;SDS011;4044;49.814;7.828;2023-02-01T00:04:03;4.00;;;3.70;;
7997;SDS011;4044;49.814;7.828;2023-02-01T00:06:29;5.93;;;4.27;;
7997;SDS011;4044;49.814;7.828;2023-02-01T00:08:55;4.77;;;4.33;;
7997;SDS011;4044;49.814;7.828;2023-02-01T00:11:21;4.03;;;3.73;;
7997;SDS011;4044;49.814;7.828;2023-02-01T00:13:47;5.57;;;4.17;;
7997;SDS011;4044;49.814;7.828;2023-02-01T00:16:14;4.40;;;4.00;;
7997;SDS011;4044;49.814;7.828;2023-02-01T00:18:44;5.40;;;3.87;;
7997;SDS011;4044;49.814;7.828;2023-02-01T00:21:12;5.67;;;4.20;;
7997;SDS011;4044;49.814;7.828;2023-02-01T00:23:38;5.00;;;4.50;;
7997;SDS011;4044;49.814;7.828;2023-02-01T00:26:05;4.37;;;3.87;;
7997;SDS011;4044;49.814;7.828;2023-02-01T00:28:33;4.47;;;4.07;;
7997;SDS011;4044;49.814;7.828;2023-02-01T00:30:59;4.50;;;4.10;;
7997;SDS011;4044;49.814;7.828;2023-02-01T00:33:25;5.27;;;4.73;;
7997;SDS011;4044;49.814;7.828;2023-02-01T00:35:56;5.47;;;4.03;;
7997;SDS011;4044;49.814;7.828;2023-02-01T00:38:26;5.17;;;4.77;;
7997;SDS011;4044;49.814;7.828;2023-02-01T00:40:52;6.83;;;6.03;;
7997;SDS011;4044;49.814;7.828;2023-02-01T00:43:18;6.93;;;6.00;;
7997;SDS011;4044;49.814;7.828;2023-02-01T00:45:45;6.80;;;5.90;;
7997;SDS011;4044;49.814;7.828;2023-02-01T00:48:11;7.00;;;6.13;;
7997;SDS011;4044;49.814;7.828;2023-02-01T00:50:40;6.60;;;6.00;;
7997;SDS011;4044;49.814;7.828;2023-02-01T00:53:10;6.70;;;5.67;;
7997;SDS011;4044;49.814;7.828;2023-02-01T00:55:36;6.50;;;5.80;;
7997;SDS011;4044;49.814;7.828;2023-02-01T00:58:02;9.37;;;6.47;;
7997;SDS011;4044;49.814;7.828;2023-02-01T01:00:28;6.57;;;5.93;;
7997;SDS011;4044;49.814;7.828;2023-02-01T01:02:54;6.97;;;5.70;;
7997;SDS011;4044;49.814;7.828;2023-02-01T01:05:19;10.10;;;6.63;;
7997;SDS011;4044;49.814;7.828;2023-02-01T01:07:45;7.40;;;6.50;;
7997;SDS011;4044;49.814;7.828;2023-02-01T01:10:10;7.00;;;6.03;;
7997;SDS011;4044;49.814;7.828;2023-02-01T01:12:36;7.10;;;6.27;;
7997;SDS011;4044;49.814;7.828;2023-02-01T01:15:02;8.57;;;6.30;;
7997;SDS011;4044;49.814;7.828;2023-02-01T01:17:27;7.60;;;6.40;;
7997;SDS011;4044;49.814;7.828;2023-02-01T01:19:53;8.17;;;6.73;;
7997;SDS011;4044;49.814;7.828;2023-02-01T01:22:18;6.80;;;6.00;;
7997;SDS011;4044;49.814;7.828;2023-02-01T01:24:44;7.23;;;6.40;;
7997;SDS011;4044;49.814;7.828;2023-02-01T01:27:09;13.07;;;6.67;;
7997;SDS011;4044;49.814;7.828;2023-02-01T01:29:35;9.63;;;6.67;;
7997;SDS011;4044;49.814;7.828;2023-02-01T01:32:01;7.97;;;6.13;;
7997;SDS011;4044;49.814;7.828;2023-02-01T01:34:27;7.53;;;6.50;;
7997;SDS011;4044;49.814;7.828;2023-02-01T01:36:52;8.70;;;6.73;;
7997;SDS011;4044;49.814;7.828;2023-02-01T01:39:18;11.13;;;6.23;;
7997;SDS011;4044;49.814;7.828;2023-02-01T01:41:43;9.50;;;6.33;;
7997;SDS011;4044;49.814;7.828;2023-02-01T01:47:12;11.00;;;7.17;;
7997;SDS011;4044;49.814;7.828;2023-02-01T01:49:40;10.10;;;7.03;;
7997;SDS011;4044;49.814;7.828;2023-02-01T01:52:05;9.63;;;7.17;;
7997;SDS011;4044;49.814;7.828;2023-02-01T01:54:33;10.63;;;6.77;;
7997;SDS011;4044;49.814;7.828;2023-02-01T01:57:17;9.17;;;6.50;;
7997;SDS011;4044;49.814;7.828;2023-02-01T02:00:13;7.93;;;6.30;;
7997;SDS011;4044;49.814;7.828;2023-02-01T02:02:43;9.10;;;7.07;;
7997;SDS011;4044;49.814;7.828;2023-02-01T02:05:11;9.30;;;6.33;;
7997;SDS011;4044;49.814;7.828;2023-02-01T02:07:42;8.53;;;6.10;;
7997;SDS011;4044;49.814;7.828;2023-02-01T02:10:11;9.47;;;6.77;;
7997;SDS011;4044;49.814;7.828;2023-02-01T02:12:40;8.93;;;6.10;;
7997;SDS011;4044;49.814;7.828;2023-02-01T02:15:07;7.90;;;6.37;;
7997;SDS011;4044;49.814;7.828;2023-02-01T02:20:25;9.43;;;6.53;;
7997;SDS011;4044;49.814;7.828;2023-02-01T02:25:45;8.70;;;6.00;;
7997;SDS011;4044;49.814;7.828;2023-02-01T02:28:46;6.93;;;5.80;;
7997;SDS011;4044;49.814;7.828;2023-02-01T02:39:57;5.97;;;5.37;;
7997;SDS011;4044;49.814;7.828;2023-02-01T02:45:53;8.47;;;5.70;;
7997;SDS011;4044;49.814;7.828;2023-02-01T02:49:01;9.33;;;6.10;;
7997;SDS011;4044;49.814;7.828;2023-02-01T02:51:45;10.40;;;6.27;;
7997;SDS011;4044;49.814;7.828;2023-02-01T02:54:40;8.60;;;6.07;;
7997;SDS011;4044;49.814;7.828;2023-02-01T02:57:30;8.40;;;6.30;;
7997;SDS011;4044;49.814;7.828;2023-02-01T03:00:18;8.00;;;6.30;;
7997;SDS011;4044;49.814;7.828;2023-02-01T03:03:06;9.87;;;6.50;;
7997;SDS011;4044;49.814;7.828;2023-02-01T03:05:50;10.07;;;6.70;;
7997;SDS011;4044;49.814;7.828;2023-02-01T03:08:17;10.53;;;7.30;;
7997;SDS011;4044;49.814;7.828;2023-02-01T03:11:00;10.20;;;7.37;;
7997;SDS011;4044;49.814;7.828;2023-02-01T03:13:32;11.63;;;6.13;;
7997;SDS011;4044;49.814;7.828;2023-02-01T03:16:20;8.60;;;6.23;;
7997;SDS011;4044;49.814;7.828;2023-02-01T03:18:54;10.67;;;7.43;;
7997;SDS011;4044;49.814;7.828;2023-02-01T03:21:41;12.37;;;7.23;;
7997;SDS011;4044;49.814;7.828;2023-02-01T03:24:11;9.17;;;6.90;;
7997;SDS011;4044;49.814;7.828;2023-02-01T03:26:42;9.57;;;6.87;;
7997;SDS011;4044;49.814;7.828;2023-02-01T03:29:14;9.13;;;6.57;;
7997;SDS011;4044;49.814;7.828;2023-02-01T03:31:45;9.33;;;7.17;;
7997;SDS011;4044;49.814;7.828;2023-02-01T03:34:11;12.13;;;7.33;;
7997;SDS011;4044;49.814;7.828;2023-02-01T03:36:39;10.23;;;6.97;;
7997;SDS011;4044;49.814;7.828;2023-02-01T03:41:49;8.30;;;5.97;;
7997;SDS011;4044;49.814;7.828;2023-02-01T03:46:59;10.23;;;6.17;;
7997;SDS011;4044;49.814;7.828;2023-02-01T03:52:25;7.77;;;5.97;;
7997;SDS011;4044;49.814;7.828;2023-02-01T03:54:57;8.93;;;6.57;;
7997;SDS011;4044;49.814;7.828;2023-02-01T03:57:28;8.97;;;6.30;;
7997;SDS011;4044;49.814;7.828;2023-02-01T04:02:52;12.53;;;7.70;;
7997;SDS011;4044;49.814;7.828;2023-02-01T04:05:18;11.60;;;7.17;;
7997;SDS011;4044;49.814;7.828;2023-02-01T04:07:44;8.57;;;5.73;;
7997;SDS011;4044;49.814;7.828;2023-02-01T04:10:10;8.20;;;4.90;;
7997;SDS011;4044;49.814;7.828;2023-02-01T04:12:36;10.33;;;5.00;;
7997;SDS011;4044;49.814;7.828;2023-02-01T04:15:02;10.63;;;4.30;;
7997;SDS011;4044;49.814;7.828;2023-02-01T04:17:28;10.10;;;4.10;;
7997;SDS011;4044;49.814;7.828;2023-02-01T04:19:54;8.67;;;4.03;;
7997;SDS011;4044;49.814;7.828;2023-02-01T04:22:20;4.40;;;3.10;;
7997;SDS011;4044;49.814;7.828;2023-02-01T04:24:45;8.33;;;2.93;;
7997;SDS011;4044;49.814;7.828;2023-02-01T04:27:11;6.03;;;2.30;;
7997;SDS011;4044;49.814;7.828;2023-02-01T04:29:37;6.23;;;2.40;;
7997;SDS011;4044;49.814;7.828;2023-02-01T04:32:02;4.63;;;2.47;;
7997;SDS011;4044;49.814;7.828;2023-02-01T04:34:28;4.63;;;2.43;;
7997;SDS011;4044;49.814;7.828;2023-02-01T04:36:54;3.33;;;2.43;;
7997;SDS011;4044;49.814;7.828;2023-02-01T04:39:19;4.63;;;2.67;;
7997;SDS011;4044;49.814;7.828;2023-02-01T04:41:45;4.23;;;2.37;;
7997;SDS011;4044;49.814;7.828;2023-02-01T04:44:12;5.37;;;2.53;;
7997;SDS011;4044;49.814;7.828;2023-02-01T04:46:40;2.10;;;2.00;;
7997;SDS011;4044;49.814;7.828;2023-02-01T04:49:05;1.80;;;1.70;;
7997;SDS011;4044;49.814;7.828;2023-02-01T04:51:31;2.57;;;1.83;;
7997;SDS011;4044;49.814;7.828;2023-02-01T04:53:57;1.77;;;1.50;;
7997;SDS011;4044;49.814;7.828;2023-02-01T04:56:22;3.00;;;1.60;;
7997;SDS011;4044;49.814;7.828;2023-02-01T04:58:48;1.80;;;1.70;;
7997;SDS011;4044;49.814;7.828;2023-02-01T05:01:13;2.20;;;1.80;;
7997;SDS011;4044;49.814;7.828;2023-02-01T05:03:39;1.83;;;1.70;;
7997;SDS011;4044;49.814;7.828;2023-02-01T05:06:04;2.73;;;1.93;;
7997;SDS011;4044;49.814;7.828;2023-02-01T05:08:30;2.57;;;1.80;;
7997;SDS011;4044;49.814;7.828;2023-02-01T05:10:57;2.53;;;1.90;;
7997;SDS011;4044;49.814;7.828;2023-02-01T05:13:23;1.80;;;1.70;;
7997;SDS011;4044;49.814;7.828;2023-02-01T05:16:08;2.63;;;2.10;;
7997;SDS011;4044;49.814;7.828;2023-02-01T05:18:33;2.53;;;2.33;;
7997;SDS011;4044;49.814;7.828;2023-02-01T05:20:59;4.63;;;2.13;;
7997;SDS011;4044;49.814;7.828;2023-02-01T05:23:24;3.20;;;2.37;;
7997;SDS011;4044;49.814;7.828;2023-02-01T05:25:50;2.50;;;2.30;;
7997;SDS011;4044;49.814;7.828;2023-02-01T05:28:15;2.47;;;2.27;;
7997;SDS011;4044;49.814;7.828;2023-02-01T05:30:41;4.23;;;2.47;;
7997;SDS011;4044;49.814;7.828;2023-02-01T05:33:06;3.23;;;2.20;;
7997;SDS011;4044;49.814;7.828;2023-02-01T05:35:32;3.00;;;2.70;;
7997;SDS011;4044;49.814;7.828;2023-02-01T05:37:57;2.20;;;2.00;;
7997;SDS011;4044;49.814;7.828;2023-02-01T05:40:23;4.27;;;2.67;;
7997;SDS011;4044;49.814;7.828;2023-02-01T05:42:48;2.50;;;2.30;;
7997;SDS011;4044;49.814;7.828;2023-02-01T05:45:14;2.73;;;2.30;;
7997;SDS011;4044;49.814;7.828;2023-02-01T05:47:39;5.70;;;3.70;;
7997;SDS011;4044;49.814;7.828;2023-02-01T05:50:05;4.27;;;3.50;;
7997;SDS011;4044;49.814;7.828;2023-02-01T05:52:31;5.83;;;2.90;;
7997;SDS011;4044;49.814;7.828;2023-02-01T05:54:57;5.53;;;3.97;;
7997;SDS011;4044;49.814;7.828;2023-02-01T05:57:22;8.70;;;4.43;;
7997;SDS011;4044;49.814;7.828;2023-02-01T05:59:48;11.27;;;5.13;;
7997;SDS011;4044;49.814;7.828;2023-02-01T06:02:14;11.97;;;5.30;;
7997;SDS011;4044;49.814;7.828;2023-02-01T06:04:40;9.50;;;4.80;;
7997;SDS011;4044;49.814;7.828;2023-02-01T06:07:07;12.63;;;5.30;;
7997;SDS011;4044;49.814;7.828;2023-02-01T06:09:34;11.70;;;5.10;;
7997;SDS011;4044;49.814;7.828;2023-02-01T06:12:00;11.27;;;5.03;;
7997;SDS011;4044;49.814;7.828;2023-02-01T06:14:26;12.80;;;5.57;;
7997;SDS011;4044;49.814;7.828;2023-02-01T06:16:52;10.77;;;4.97;;
7997;SDS011;4044;49.814;7.828;2023-02-01T06:19:19;10.87;;;5.10;;
7997;SDS011;4044;49.814;7.828;2023-02-01T06:21:44;11.57;;;5.43;;
7997;SDS011;4044;49.814;7.828;2023-02-01T06:24:10;11.83;;;5.10;;
7997;SDS011;4044;49.814;7.828;2023-02-01T06:26:36;12.40;;;5.30;;
7997;SDS011;4044;49.814;7.828;2023-02-01T06:29:02;15.83;;;5.97;;
7997;SDS011;4044;49.814;7.828;2023-02-01T06:31:27;14.30;;;5.23;;
7997;SDS011;4044;49.814;7.828;2023-02-01T06:33:53;13.83;;;5.83;;
7997;SDS011;4044;49.814;7.828;2023-02-01T06:36:18;11.87;;;5.60;;
7997;SDS011;4044;49.814;7.828;2023-02-01T06:38:46;11.53;;;6.27;;
7997;SDS011;4044;49.814;7.828;2023-02-01T06:41:12;12.90;;;6.30;;
7997;SDS011;4044;49.814;7.828;2023-02-01T06:43:38;14.57;;;6.60;;
7997;SDS011;4044;49.814;7.828;2023-02-01T06:46:07;16.20;;;6.23;;
7997;SDS011;4044;49.814;7.828;2023-02-01T06:48:34;15.27;;;7.10;;
7997;SDS011;4044;49.814;7.828;2023-02-01T06:51:00;13.57;;;6.60;;
7997;SDS011;4044;49.814;7.828;2023-02-01T06:53:26;14.80;;;7.33;;
7997;SDS011;4044;49.814;7.828;2023-02-01T06:55:53;17.40;;;7.20;;
7997;SDS011;4044;49.814;7.828;2023-02-01T06:58:23;14.57;;;6.93;;
7997;SDS011;4044;49.814;7.828;2023-02-01T07:00:49;19.00;;;7.63;;
7997;SDS011;4044;49.814;7.828;2023-02-01T07:03:15;16.40;;;6.47;;
7997;SDS011;4044;49.814;7.828;2023-02-01T07:05:41;14.37;;;6.57;;
7997;SDS011;4044;49.814;7.828;2023-02-01T07:08:06;15.63;;;6.80;;
7997;SDS011;4044;49.814;7.828;2023-02-01T07:10:33;13.67;;;6.50;;
7997;SDS011;4044;49.814;7.828;2023-02-01T07:12:59;18.43;;;6.83;;
7997;SDS011;4044;49.814;7.828;2023-02-01T07:15:24;16.40;;;6.27;;
7997;SDS011;4044;49.814;7.828;2023-02-01T07:17:50;16.83;;;6.77;;
7997;SDS011;4044;49.814;7.828;2023-02-01T07:20:16;17.50;;;6.80;;
7997;SDS011;4044;49.814;7.828;2023-02-01T07:22:42;14.87;;;6.20;;
7997;SDS011;4044;49.814;7.828;2023-02-01T07:25:07;12.40;;;6.57;;
7997;SDS011;4044;49.814;7.828;2023-02-01T07:27:34;17.53;;;6.50;;
7997;SDS011;4044;49.814;7.828;2023-02-01T07:30:00;18.83;;;7.33;;
7997;SDS011;4044;49.814;7.828;2023-02-01T07:32:27;20.57;;;6.50;;
7997;SDS011;4044;49.814;7.828;2023-02-01T07:34:53;20.10;;;6.53;;
7997;SDS011;4044;49.814;7.828;2023-02-01T07:37:18;18.50;;;6.90;;
7997;SDS011;4044;49.814;7.828;2023-02-01T07:39:44;16.17;;;6.33;;
7997;SDS011;4044;49.814;7.828;2023-02-01T07:42:09;15.17;;;6.03;;
7997;SDS011;4044;49.814;7.828;2023-02-01T07:44:35;16.27;;;6.00;;
7997;SDS011;4044;49.814;7.828;2023-02-01T07:47:00;18.47;;;5.93;;
7997;SDS011;4044;49.814;7.828;2023-02-01T07:49:26;15.23;;;5.43;;
7997;SDS011;4044;49.814;7.828;2023-02-01T07:51:51;19.20;;;5.33;;
7997;SDS011;4044;49.814;7.828;2023-02-01T07:54:17;22.80;;;5.47;;
7997;SDS011;4044;49.814;7.828;2023-02-01T07:56:42;14.07;;;4.97;;
7997;SDS011;4044;49.814;7.828;2023-02-01T07:59:08;16.23;;;5.43;;
7997;SDS011;4044;49.814;7.828;2023-02-01T08:01:34;14.43;;;4.90;;
7997;SDS011;4044;49.814;7.828;2023-02-01T08:04:00;18.23;;;5.83;;
7997;SDS011;4044;49.814;7.828;2023-02-01T08:06:27;18.17;;;5.10;;
7997;SDS011;4044;49.814;7.828;2023-02-01T08:08:56;18.20;;;5.83;;
7997;SDS011;4044;49.814;7.828;2023-02-01T08:11:22;16.67;;;5.17;;
7997;SDS011;4044;49.814;7.828;2023-02-01T08:13:48;14.67;;;5.50;;
7997;SDS011;4044;49.814;7.828;2023-02-01T08:16:14;15.77;;;4.60;;
7997;SDS011;4044;49.814;7.828;2023-02-01T08:18:42;15.03;;;4.93;;
7997;SDS011;4044;49.814;7.828;2023-02-01T08:21:09;17.87;;;4.30;;
7997;SDS011;4044;49.814;7.828;2023-02-01T08:23:37;15.93;;;4.43;;
7997;SDS011;4044;49.814;7.828;2023-02-01T08:26:14;13.07;;;4.23;;
7997;SDS011;4044;49.814;7.828;2023-02-01T08:28:45;14.80;;;4.40;;
7997;SDS011;4044;49.814;7.828;2023-02-01T08:31:17;14.23;;;4.40;;
7997;SDS011;4044;49.814;7.828;2023-02-01T08:33:48;13.70;;;3.87;;
7997;SDS011;4044;49.814;7.828;2023-02-01T08:36:15;11.27;;;4.03;;
7997;SDS011;4044;49.814;7.828;2023-02-01T08:38:41;14.57;;;4.40;;
7997;SDS011;4044;49.814;7.828;2023-02-01T08:41:08;20.57;;;4.77;;
7997;SDS011;4044;49.814;7.828;2023-02-01T08:43:35;12.43;;;3.90;;
7997;SDS011;4044;49.814;7.828;2023-02-01T08:46:01;12.53;;;4.17;;
7997;SDS011;4044;49.814;7.828;2023-02-01T08:48:27;9.83;;;4.07;;
7997;SDS011;4044;49.814;7.828;2023-02-01T08:50:53;12.73;;;3.90;;
7997;SDS011;4044;49.814;7.828;2023-02-01T08:53:19;9.23;;;3.33;;
7997;SDS011;4044;49.814;7.828;2023-02-01T08:55:45;16.83;;;4.03;;
7997;SDS011;4044;49.814;7.828;2023-02-01T08:58:12;11.47;;;3.70;;
7997;SDS011;4044;49.814;7.828;2023-02-01T09:00:38;14.10;;;3.80;;
7997;SDS011;4044;49.814;7.828;2023-02-01T09:03:04;12.30;;;3.83;;
7997;SDS011;4044;49.814;7.828;2023-02-01T09:05:30;9.27;;;3.10;;
7997;SDS011;4044;49.814;7.828;2023-02-01T09:07:56;13.47;;;3.77;;
7997;SDS011;4044;49.814;7.828;2023-02-01T09:10:21;9.83;;;3.57;;
7997;SDS011;4044;49.814;7.828;2023-02-01T09:12:47;11.47;;;3.20;;
7997;SDS011;4044;49.814;7.828;2023-02-01T09:15:12;9.00;;;2.90;;
7997;SDS011;4044;49.814;7.828;2023-02-01T09:17:38;10.63;;;3.00;;
7997;SDS011;4044;49.814;7.828;2023-02-01T09:20:04;10.87;;;3.23;;
7997;SDS011;4044;49.814;7.828;2023-02-01T09:22:30;9.87;;;2.93;;
7997;SDS011;4044;49.814;7.828;2023-02-01T09:24:55;8.13;;;2.70;;
7997;SDS011;4044;49.814;7.828;2023-02-01T09:27:21;11.20;;;2.90;;
7997;SDS011;4044;49.814;7.828;2023-02-01T09:29:47;8.93;;;3.30;;
7997;SDS011;4044;49.814;7.828;2023-02-01T09:32:17;11.43;;;2.93;;
7997;SDS011;4044;49.814;7.828;2023-02-01T09:34:43;7.80;;;2.83;;
7997;SDS011;4044;49.814;7.828;2023-02-01T09:37:09;9.87;;;3.33;;
7997;SDS011;4044;49.814;7.828;2023-02-01T09:39:34;7.53;;;2.60;;
7997;SDS011;4044;49.814;7.828;2023-02-01T09:42:07;10.77;;;3.43;;
7997;SDS011;4044;49.814;7.828;2023-02-01T09:47:25;10.87;;;3.47;;
7997;SDS011;4044;49.814;7.828;2023-02-01T09:49:56;8.87;;;2.60;;
7997;SDS011;4044;49.814;7.828;2023-02-01T09:52:37;8.97;;;3.10;;
7997;SDS011;4044;49.814;7.828;2023-02-01T09:55:13;9.77;;;2.97;;
7997;SDS011;4044;49.814;7.828;2023-02-01T10:00:26;9.70;;;2.90;;
7997;SDS011;4044;49.814;7.828;2023-02-01T10:02:55;10.10;;;3.00;;
7997;SDS011;4044;49.814;7.828;2023-02-01T10:05:27;8.93;;;3.03;;
7997;SDS011;4044;49.814;7.828;2023-02-01T10:08:46;11.00;;;2.90;;
7997;SDS011;4044;49.814;7.828;2023-02-01T10:22:45;11.27;;;2.57;;
7997;SDS011;4044;49.814;7.828;2023-02-01T10:28:11;8.83;;;2.53;;
7997;SDS011;4044;49.814;7.828;2023-02-01T10:30:42;12.70;;;3.27;;
7997;SDS011;4044;49.814;7.828;2023-02-01T10:33:18;9.20;;;3.33;;
7997;SDS011;4044;49.814;7.828;2023-02-01T10:35:45;8.20;;;2.53;;
7997;SDS011;4044;49.814;7.828;2023-02-01T10:38:17;8.27;;;3.00;;
7997;SDS011;4044;49.814;7.828;2023-02-01T10:40:51;10.30;;;3.17;;
7997;SDS011;4044;49.814;7.828;2023-02-01T10:43:20;13.37;;;2.57;;
7997;SDS011;4044;49.814;7.828;2023-02-01T10:45:46;10.00;;;3.10;;
7997;SDS011;4044;49.814;7.828;2023-02-01T10:48:11;10.20;;;2.93;;
7997;SDS011;4044;49.814;7.828;2023-02-01T10:50:47;8.73;;;2.73;;
7997;SDS011;4044;49.814;7.828;2023-02-01T10:56:11;6.47;;;2.50;;
7997;SDS011;4044;49.814;7.828;2023-02-01T10:58:46;7.70;;;2.50;;
7997;SDS011;4044;49.814;7.828;2023-02-01T11:01:19;11.77;;;3.23;;
7997;SDS011;4044;49.814;7.828;2023-02-01T11:03:53;9.53;;;2.90;;
7997;SDS011;4044;49.814;7.828;2023-02-01T11:06:37;5.37;;;2.63;;
7997;SDS011;4044;49.814;7.828;2023-02-01T11:11:32;10.80;;;2.90;;
7997;SDS011;4044;49.814;7.828;2023-02-01T11:13:59;9.97;;;2.77;;
7997;SDS011;4044;49.814;7.828;2023-02-01T11:16:35;8.53;;;2.70;;
7997;SDS011;4044;49.814;7.828;2023-02-01T11:19:03;10.73;;;2.80;;
7997;SDS011;4044;49.814;7.828;2023-02-01T11:21:30;9.13;;;2.77;;
7997;SDS011;4044;49.814;7.828;2023-02-01T11:24:00;7.73;;;2.40;;
7997;SDS011;4044;49.814;7.828;2023-02-01T11:26:28;10.33;;;3.20;;
7997;SDS011;4044;49.814;7.828;2023-02-01T11:29:02;12.03;;;2.63;;
7997;SDS011;4044;49.814;7.828;2023-02-01T11:31:30;8.43;;;2.90;;
7997;SDS011;4044;49.814;7.828;2023-02-01T11:34:07;7.43;;;2.50;;
7997;SDS011;4044;49.814;7.828;2023-02-01T11:36:45;9.33;;;3.00;;
7997;SDS011;4044;49.814;7.828;2023-02-01T11:41:42;11.60;;;2.97;;
7997;SDS011;4044;49.814;7.828;2023-02-01T11:47:21;14.53;;;2.87;;
7997;SDS011;4044;49.814;7.828;2023-02-01T11:50:00;6.13;;;2.20;;
7997;SDS011;4044;49.814;7.828;2023-02-01T11:58:12;7.77;;;2.70;;
7997;SDS011;4044;49.814;7.828;2023-02-01T12:01:10;8.73;;;2.80;;
7997;SDS011;4044;49.814;7.828;2023-02-01T12:09:20;10.93;;;3.13;;
7997;SDS011;4044;49.814;7.828;2023-02-01T12:14:51;8.23;;;2.50;;
7997;SDS011;4044;49.814;7.828;2023-02-01T12:23:41;8.90;;;3.00;;
7997;SDS011;4044;49.814;7.828;2023-02-01T12:27:13;6.53;;;2.13;;
7997;SDS011;4044;49.814;7.828;2023-02-01T12:29:48;10.20;;;2.77;;
7997;SDS011;4044;49.814;7.828;2023-02-01T12:40:43;10.03;;;2.70;;
7997;SDS011;4044;49.814;7.828;2023-02-01T12:46:20;10.80;;;3.23;;
7997;SDS011;4044;49.814;7.828;2023-02-01T12:51:28;5.07;;;2.10;;
7997;SDS011;4044;49.814;7.828;2023-02-01T12:54:06;12.00;;;3.20;;
7997;SDS011;4044;49.814;7.828;2023-02-01T12:56:40;4.20;;;1.97;;
7997;SDS011;4044;49.814;7.828;2023-02-01T13:02:03;8.53;;;2.43;;
7997;SDS011;4044;49.814;7.828;2023-02-01T13:04:59;8.53;;;2.33;;
7997;SDS011;4044;49.814;7.828;2023-02-01T13:07:39;8.40;;;2.53;;
7997;SDS011;4044;49.814;7.828;2023-02-01T13:10:17;9.33;;;2.40;;
7997;SDS011;4044;49.814;7.828;2023-02-01T13:19:22;5.77;;;2.37;;
7997;SDS011;4044;49.814;7.828;2023-02-01T13:21:49;7.13;;;2.60;;
7997;SDS011;4044;49.814;7.828;2023-02-01T13:27:10;11.33;;;2.67;;
7997;SDS011;4044;49.814;7.828;2023-02-01T13:29:39;8.33;;;2.97;;
7997;SDS011;4044;49.814;7.828;2023-02-01T13:35:48;7.37;;;2.40;;
7997;SDS011;4044;49.814;7.828;2023-02-01T13:38:42;8.83;;;2.13;;
7997;SDS011;4044;49.814;7.828;2023-02-01T13:41:28;5.53;;;2.50;;
7997;SDS011;4044;49.814;7.828;2023-02-01T13:44:17;5.73;;;2.40;;
7997;SDS011;4044;49.814;7.828;2023-02-01T13:46:49;5.50;;;2.53;;
7997;SDS011;4044;49.814;7.828;2023-02-01T13:49:23;8.27;;;2.70;;
7997;SDS011;4044;49.814;7.828;2023-02-01T13:51:53;10.83;;;3.13;;
7997;SDS011;4044;49.814;7.828;2023-02-01T13:54:31;6.43;;;2.50;;
7997;SDS011;4044;49.814;7.828;2023-02-01T13:56:59;9.03;;;2.40;;
7997;SDS011;4044;49.814;7.828;2023-02-01T14:05:04;4.87;;;2.27;;
7997;SDS011;4044;49.814;7.828;2023-02-01T14:07:32;6.40;;;2.23;;
7997;SDS011;4044;49.814;7.828;2023-02-01T14:09:58;8.50;;;2.37;;
7997;SDS011;4044;49.814;7.828;2023-02-01T14:13:12;10.53;;;3.20;;
7997;SDS011;4044;49.814;7.828;2023-02-01T14:26:25;4.83;;;2.20;;
7997;SDS011;4044;49.814;7.828;2023-02-01T14:29:36;4.77;;;2.30;;
7997;SDS011;4044;49.814;7.828;2023-02-01T14:31:43;10.23;;;2.87;;
7997;SDS011;4044;49.814;7.828;2023-02-01T14:34:16;9.87;;;2.90;;
7997;SDS011;4044;49.814;7.828;2023-02-01T14:36:45;10.20;;;2.30;;
7997;SDS011;4044;49.814;7.828;2023-02-01T14:39:19;6.73;;;2.37;;
7997;SDS011;4044;49.814;7.828;2023-02-01T14:41:56;6.97;;;2.63;;
7997;SDS011;4044;49.814;7.828;2023-02-01T14:44:28;11.23;;;2.63;;
7997;SDS011;4044;49.814;7.828;2023-02-01T14:47:09;8.37;;;2.27;;
7997;SDS011;4044;49.814;7.828;2023-02-01T14:52:46;6.43;;;1.93;;
7997;SDS011;4044;49.814;7.828;2023-02-01T14:55:30;5.63;;;2.20;;
7997;SDS011;4044;49.814;7.828;2023-02-01T14:58:15;6.37;;;2.00;;
7997;SDS011;4044;49.814;7.828;2023-02-01T15:00:59;6.83;;;1.90;;
7997;SDS011;4044;49.814;7.828;2023-02-01T15:06:25;6.37;;;2.23;;
7997;SDS011;4044;49.814;7.828;2023-02-01T15:08:52;7.37;;;1.97;;
7997;SDS011;4044;49.814;7.828;2023-02-01T15:11:21;7.43;;;2.20;;
7997;SDS011;4044;49.814;7.828;2023-02-01T15:13:50;8.17;;;2.40;;
7997;SDS011;4044;49.814;7.828;2023-02-01T15:16:19;8.90;;;2.60;;
7997;SDS011;4044;49.814;7.828;2023-02-01T15:18:47;6.93;;;2.20;;
7997;SDS011;4044;49.814;7.828;2023-02-01T15:21:17;7.30;;;2.77;;
7997;SDS011;4044;49.814;7.828;2023-02-01T15:23:45;7.90;;;2.10;;
7997;SDS011;4044;49.814;7.828;2023-02-01T15:26:24;9.73;;;2.83;;
7997;SDS011;4044;49.814;7.828;2023-02-01T15:28:53;6.87;;;2.20;;
7997;SDS011;4044;49.814;7.828;2023-02-01T15:34:17;5.07;;;2.30;;
7997;SDS011;4044;49.814;7.828;2023-02-01T15:36:44;6.97;;;2.10;;
7997;SDS011;4044;49.814;7.828;2023-02-01T15:39:20;6.27;;;2.60;;
7997;SDS011;4044;49.814;7.828;2023-02-01T15:41:55;5.27;;;2.23;;
7997;SDS011;4044;49.814;7.828;2023-02-01T15:46:59;6.60;;;2.53;;
7997;SDS011;4044;49.814;7.828;2023-02-01T15:49:36;6.47;;;2.57;;
7997;SDS011;4044;49.814;7.828;2023-02-01T15:52:08;6.90;;;2.13;;
7997;SDS011;4044;49.814;7.828;2023-02-01T15:54:49;8.63;;;2.30;;
7997;SDS011;4044;49.814;7.828;2023-02-01T15:57:27;9.00;;;2.73;;
7997;SDS011;4044;49.814;7.828;2023-02-01T15:59:56;7.93;;;2.80;;
7997;SDS011;4044;49.814;7.828;2023-02-01T16:04:59;7.60;;;3.03;;
7997;SDS011;4044;49.814;7.828;2023-02-01T16:07:27;8.27;;;2.60;;
7997;SDS011;4044;49.814;7.828;2023-02-01T16:09:57;10.70;;;3.10;;
7997;SDS011;4044;49.814;7.828;2023-02-01T16:12:45;13.07;;;3.77;;
7997;SDS011;4044;49.814;7.828;2023-02-01T16:15:11;5.57;;;2.57;;
7997;SDS011;4044;49.814;7.828;2023-02-01T16:17:37;9.20;;;2.90;;
7997;SDS011;4044;49.814;7.828;2023-02-01T16:20:03;8.63;;;3.10;;
7997;SDS011;4044;49.814;7.828;2023-02-01T16:22:29;10.77;;;3.20;;
7997;SDS011;4044;49.814;7.828;2023-02-01T16:24:54;9.33;;;3.10;;
7997;SDS011;4044;49.814;7.828;2023-02-01T16:27:20;9.80;;;2.87;;
7997;SDS011;4044;49.814;7.828;2023-02-01T16:29:47;9.20;;;3.60;;
7997;SDS011;4044;49.814;7.828;2023-02-01T16:32:19;7.97;;;3.03;;
7997;SDS011;4044;49.814;7.828;2023-02-01T16:34:46;10.27;;;2.77;;
7997;SDS011;4044;49.814;7.828;2023-02-01T16:37:16;10.10;;;3.10;;
7997;SDS011;4044;49.814;7.828;2023-02-01T16:39:45;9.10;;;3.30;;
7997;SDS011;4044;49.814;7.828;2023-02-01T16:42:11;9.40;;;2.60;;
7997;SDS011;4044;49.814;7.828;2023-02-01T16:44:37;6.37;;;2.60;;
7997;SDS011;4044;49.814;7.828;2023-02-01T16:47:03;12.47;;;3.57;;
7997;SDS011;4044;49.814;7.828;2023-02-01T16:49:41;7.77;;;2.43;;
7997;SDS011;4044;49.814;7.828;2023-02-01T16:52:09;12.63;;;2.97;;
7997;SDS011;4044;49.814;7.828;2023-02-01T16:54:42;12.27;;;3.17;;
7997;SDS011;4044;49.814;7.828;2023-02-01T16:57:10;9.07;;;3.10;;
7997;SDS011;4044;49.814;7.828;2023-02-01T16:59:38;6.63;;;2.40;;
7997;SDS011;4044;49.814;7.828;2023-02-01T17:02:04;7.93;;;2.40;;
7997;SDS011;4044;49.814;7.828;2023-02-01T17:04:29;9.10;;;3.00;;
7997;SDS011;4044;49.814;7.828;2023-02-01T17:06:55;7.40;;;2.50;;
7997;SDS011;4044;49.814;7.828;2023-02-01T17:09:21;6.47;;;2.40;;
7997;SDS011;4044;49.814;7.828;2023-02-01T17:11:48;7.57;;;2.50;;
7997;SDS011;4044;49.814;7.828;2023-02-01T17:14:17;6.63;;;2.90;;
7997;SDS011;4044;49.814;7.828;2023-02-01T17:16:45;10.63;;;2.73;;
7997;SDS011;4044;49.814;7.828;2023-02-01T17:19:13;10.57;;;3.00;;
7997;SDS011;4044;49.814;7.828;2023-02-01T17:21:46;8.73;;;2.83;;
7997;SDS011;4044;49.814;7.828;2023-02-01T17:24:18;8.00;;;3.10;;
7997;SDS011;4044;49.814;7.828;2023-02-01T17:26:45;6.97;;;2.57;;
7997;SDS011;4044;49.814;7.828;2023-02-01T17:29:10;9.03;;;3.30;;
7997;SDS011;4044;49.814;7.828;2023-02-01T17:31:38;8.63;;;2.80;;
7997;SDS011;4044;49.814;7.828;2023-02-01T17:34:08;11.07;;;3.50;;
7997;SDS011;4044;49.814;7.828;2023-02-01T17:36:34;9.73;;;2.57;;
7997;SDS011;4044;49.814;7.828;2023-02-01T17:39:00;8.47;;;2.57;;
7997;SDS011;4044;49.814;7.828;2023-02-01T17:41:26;9.93;;;3.00;;
7997;SDS011;4044;49.814;7.828;2023-02-01T17:43:52;6.83;;;2.40;;
7997;SDS011;4044;49.814;7.828;2023-02-01T17:46:18;11.07;;;3.13;;
7997;SDS011;4044;49.814;7.828;2023-02-01T17:48:45;13.50;;;3.20;;
7997;SDS011;4044;49.814;7.828;2023-02-01T17:51:13;6.57;;;2.63;;